Time;durP1;ratioP1;P1;durP2;ratioP2;P2;SDS_P1;SDS_P2;PMS_P1;PMS_P2;Temp;Humidity;BMP_temperature;BMP_pressure;BME280_temperature;BME280_humidity;BME280_pressure;Samples;Min_cycle;Max_cycle;Signal;HPM_P1;HPM_P2
2024/01/20 00:00:14;;;;;;;6.93;4.13;;;-2.50;99.90;;;;;;4899746;29;20500;-77
2024/01/20 00:02:40;;;;;;;8.85;4.53;;;-2.50;99.90;;;;;;4913938;29;20545;-77
2024/01/20 00:05:06;;;;;;;11.38;4.60;;;-2.50;99.90;;;;;;4899249;29;20036;-79
2024/01/20 00:07:32;;;;;;;9.52;4.28;;;-2.50;99.90;;;;;;4920207;29;20099;-78
2024/01/20 00:09:58;;;;;;;8.63;4.65;;;-2.50;99.90;;;;;;4913417;29;20044;-78
2024/01/20 00:12:24;;;;;;;9.93;4.88;;;-2.50;99.90;;;;;;4900663;29;20091;-79
2024/01/20 00:14:50;;;;;;;11.35;3.85;;;-2.50;99.90;;;;;;4897027;29;20055;-78
2024/01/20 00:17:16;;;;;;;10.30;4.68;;;-2.50;99.90;;;;;;4913797;29;20032;-78
2024/01/20 00:19:42;;;;;;;8.63;4.13;;;-2.50;99.90;;;;;;4915637;29;20596;-78
2024/01/20 00:22:08;;;;;;;10.65;4.55;;;-2.50;99.90;;;;;;4918405;29;20063;-78
2024/01/20 00:24:33;;;;;;;7.80;4.85;;;-2.50;99.90;;;;;;4917657;29;20040;-77
2024/01/20 00:26:59;;;;;;;9.73;4.45;;;-2.50;99.90;;;;;;4916174;29;20044;-78
2024/01/20 00:29:25;;;;;;;8.15;4.15;;;-2.50;99.90;;;;;;4916450;29;20119;-78
2024/01/20 00:31:51;;;;;;;8.40;4.03;;;-2.50;99.90;;;;;;4917135;29;20409;-77
2024/01/20 00:34:17;;;;;;;8.10;3.90;;;-2.50;99.90;;;;;;4896848;29;20037;-79
2024/01/20 00:36:42;;;;;;;8.90;4.50;;;-2.60;99.90;;;;;;4918002;29;20477;-78
2024/01/20 00:39:08;;;;;;;9.93;4.85;;;-2.60;99.90;;;;;;4902831;29;20502;-78
2024/01/20 00:41:34;;;;;;;11.10;4.78;;;-2.60;99.90;;;;;;4901947;29;20115;-77
2024/01/20 00:44:00;;;;;;;9.82;5.15;;;-2.60;99.90;;;;;;4915466;29;20052;-78
2024/01/20 00:46:25;;;;;;;13.35;5.00;;;-2.60;99.90;;;;;;4884046;29;20051;-78
2024/01/20 00:48:51;;;;;;;9.48;4.53;;;-2.60;99.90;;;;;;4912988;29;20040;-77
2024/01/20 00:51:17;;;;;;;9.98;4.45;;;-2.60;99.90;;;;;;4898128;29;20035;-78
2024/01/20 00:53:43;;;;;;;8.88;4.57;;;-2.50;99.90;;;;;;4915833;29;20434;-79
2024/01/20 00:56:08;;;;;;;8.88;4.68;;;-2.40;99.90;;;;;;4915863;29;20032;-78
2024/01/20 00:58:34;;;;;;;8.50;4.73;;;-2.50;99.90;;;;;;4913122;29;20032;-77
2024/01/20 01:01:00;;;;;;;16.70;5.47;;;-2.50;99.90;;;;;;4914907;29;20454;-78
2024/01/20 01:03:26;;;;;;;9.73;5.25;;;-2.50;99.90;;;;;;4916448;29;20078;-78
2024/01/20 01:05:51;;;;;;;8.75;4.25;;;-2.50;99.90;;;;;;4912533;29;20456;-79
2024/01/20 01:08:17;;;;;;;8.95;4.28;;;-2.50;99.90;;;;;;4912440;29;20118;-77
2024/01/20 01:10:43;;;;;;;7.68;4.43;;;-2.50;99.90;;;;;;4909905;29;20036;-78
2024/01/20 01:13:09;;;;;;;7.28;4.40;;;-2.40;99.90;;;;;;4897009;29;20111;-79
2024/01/20 01:15:35;;;;;;;9.25;5.05;;;-2.50;99.90;;;;;;4913188;29;20686;-78
2024/01/20 01:18:00;;;;;;;8.95;5.20;;;-2.50;99.90;;;;;;4898718;29;20040;-78
2024/01/20 01:20:26;;;;;;;10.20;5.40;;;-2.60;99.90;;;;;;4897864;29;20040;-79
2024/01/20 01:22:53;;;;;;;11.20;5.32;;;-2.60;99.90;;;;;;4899996;29;20572;-79
2024/01/20 01:25:19;;;;;;;12.10;5.20;;;-2.50;99.90;;;;;;4918406;29;20140;-78
2024/01/20 01:27:45;;;;;;;10.23;5.13;;;-2.60;99.90;;;;;;4900317;29;20510;-78
2024/01/20 01:30:11;;;;;;;9.43;5.18;;;-2.60;99.90;;;;;;4916571;29;20142;-78
2024/01/20 01:32:37;;;;;;;10.88;4.90;;;-2.50;99.90;;;;;;4916320;29;20044;-79
2024/01/20 01:35:03;;;;;;;12.43;5.00;;;-2.50;99.90;;;;;;4902030;29;20047;-77
2024/01/20 01:37:29;;;;;;;8.15;4.30;;;-2.50;99.90;;;;;;4898802;29;20087;-78
2024/01/20 01:39:54;;;;;;;5.85;4.35;;;-2.50;99.90;;;;;;4890786;29;20505;-78
2024/01/20 01:42:20;;;;;;;9.63;5.10;;;-2.50;99.90;;;;;;4901442;29;20051;-79
2024/01/20 01:44:46;;;;;;;10.30;4.88;;;-2.50;99.90;;;;;;4912583;29;20083;-79
2024/01/20 01:47:12;;;;;;;7.93;4.57;;;-2.40;99.90;;;;;;4916113;29;20556;-79
2024/01/20 01:49:38;;;;;;;11.15;5.00;;;-2.50;99.90;;;;;;4922437;29;20043;-78
2024/01/20 01:52:04;;;;;;;9.95;5.60;;;-2.40;99.90;;;;;;4919031;29;20119;-78
2024/01/20 01:54:31;;;;;;;8.75;5.13;;;-2.40;99.90;;;;;;4919105;29;20091;-78
2024/01/20 01:56:59;;;;;;;7.63;4.47;;;-2.40;99.90;;;;;;4903213;29;20485;-79
2024/01/20 01:59:28;;;;;;;10.80;5.05;;;-2.50;99.90;;;;;;4915098;29;20062;-78
2024/01/20 02:01:54;;;;;;;10.07;5.22;;;-2.50;99.90;;;;;;4913411;29;20039;-78
2024/01/20 02:04:19;;;;;;;10.68;5.70;;;-2.50;99.90;;;;;;4898769;29;20051;-79
2024/01/20 02:06:45;;;;;;;10.25;5.38;;;-2.50;99.90;;;;;;4924061;29;20040;-78
2024/01/20 02:09:12;;;;;;;9.95;5.07;;;-2.50;99.90;;;;;;4923041;29;20045;-78
2024/01/20 02:11:38;;;;;;;12.80;4.97;;;-2.50;99.90;;;;;;4919968;29;20102;-80
2024/01/20 02:14:05;;;;;;;10.57;5.18;;;-2.50;99.90;;;;;;4919541;29;20036;-79
2024/01/20 02:16:31;;;;;;;11.20;4.85;;;-2.50;99.90;;;;;;4917194;29;20039;-79
2024/01/20 02:19:04;;;;;;;10.68;4.80;;;-2.40;99.90;;;;;;4923699;29;20473;-79
2024/01/20 02:21:30;;;;;;;10.55;5.20;;;-2.50;99.90;;;;;;4915481;29;20037;-78
2024/01/20 02:23:59;;;;;;;9.02;5.20;;;-2.50;99.90;;;;;;4900197;29;20043;-78
2024/01/20 02:26:27;;;;;;;10.88;5.28;;;-2.60;99.90;;;;;;4918194;29;20056;-79
2024/01/20 02:28:53;;;;;;;14.43;5.38;;;-2.50;99.90;;;;;;4915927;29;20040;-80
2024/01/20 02:31:19;;;;;;;10.75;5.25;;;-2.50;99.90;;;;;;4900886;29;20096;-78
2024/01/20 02:33:45;;;;;;;9.13;5.00;;;-2.60;99.90;;;;;;4884529;29;20074;-78
2024/01/20 02:36:11;;;;;;;10.05;4.95;;;-2.60;99.90;;;;;;4902452;29;20500;-77
2024/01/20 02:38:36;;;;;;;9.15;5.20;;;-2.60;99.90;;;;;;4916850;29;20043;-78
2024/01/20 02:41:02;;;;;;;9.68;5.22;;;-2.60;99.90;;;;;;4903084;29;20036;-79
2024/01/20 02:43:28;;;;;;;11.90;5.78;;;-2.60;99.90;;;;;;4901470;29;20032;-79
2024/01/20 02:45:54;;;;;;;10.02;5.32;;;-2.60;99.90;;;;;;4918877;29;20036;-78
2024/01/20 02:48:20;;;;;;;11.35;5.63;;;-2.60;99.90;;;;;;4915267;29;20127;-78
2024/01/20 02:50:46;;;;;;;9.75;5.35;;;-2.60;99.90;;;;;;4917311;29;20028;-78
2024/01/20 02:53:11;;;;;;;8.50;5.03;;;-2.60;99.90;;;;;;4917977;29;20521;-79
2024/01/20 02:55:37;;;;;;;9.18;4.78;;;-2.60;99.90;;;;;;4900207;29;20042;-79
2024/01/20 02:58:03;;;;;;;11.40;4.82;;;-2.70;99.90;;;;;;4915069;29;20086;-79
2024/01/20 03:00:28;;;;;;;13.25;5.88;;;-2.60;99.90;;;;;;4899955;29;20408;-78
2024/01/20 03:02:55;;;;;;;11.95;5.93;;;-2.70;99.90;;;;;;4884999;29;20505;-78
2024/01/20 03:05:21;;;;;;;12.45;4.95;;;-2.70;99.90;;;;;;4919138;29;20024;-80
2024/01/20 03:07:47;;;;;;;10.70;5.72;;;-2.70;99.90;;;;;;4918768;29;20059;-79
2024/01/20 03:10:13;;;;;;;9.15;5.18;;;-2.60;99.90;;;;;;4919447;29;20529;-79
2024/01/20 03:12:39;;;;;;;12.07;5.78;;;-2.60;99.90;;;;;;4922291;29;20396;-78
2024/01/20 03:15:09;;;;;;;12.15;5.60;;;-2.60;99.90;;;;;;4900015;29;20111;-79
2024/01/20 03:17:35;;;;;;;12.38;6.63;;;-2.60;99.90;;;;;;4913760;29;20044;-78
2024/01/20 03:20:01;;;;;;;11.88;6.13;;;-2.60;99.90;;;;;;4909242;29;20029;-78
2024/01/20 03:22:26;;;;;;;9.50;5.72;;;-2.60;99.90;;;;;;4924153;29;20056;-79
2024/01/20 03:24:52;;;;;;;10.07;5.32;;;-2.70;99.90;;;;;;4920462;29;20104;-79
2024/01/20 03:27:18;;;;;;;12.00;5.82;;;-2.70;99.90;;;;;;4921311;29;20039;-79
2024/01/20 03:29:44;;;;;;;11.93;6.10;;;-2.70;99.90;;;;;;4918909;29;20060;-79
2024/01/20 03:32:10;;;;;;;12.25;5.82;;;-2.70;99.90;;;;;;4921261;29;20035;-79
2024/01/20 03:34:37;;;;;;;10.05;6.07;;;-2.70;99.90;;;;;;4904430;29;20494;-79
2024/01/20 03:37:03;;;;;;;11.35;6.07;;;-2.60;99.90;;;;;;4905494;29;20033;-79
2024/01/20 03:39:28;;;;;;;10.65;6.00;;;-2.70;99.90;;;;;;4924575;29;20051;-79
2024/01/20 03:41:54;;;;;;;10.13;5.63;;;-2.70;99.90;;;;;;4919495;29;20031;-80
2024/01/20 03:44:20;;;;;;;12.55;5.93;;;-2.70;99.90;;;;;;4920116;29;20060;-78
2024/01/20 03:46:46;;;;;;;10.35;6.03;;;-2.70;99.90;;;;;;4920935;29;20024;-80
2024/01/20 03:49:12;;;;;;;9.75;5.90;;;-2.70;99.90;;;;;;4904638;29;20054;-78
2024/01/20 03:51:38;;;;;;;12.25;6.55;;;-2.70;99.90;;;;;;4920483;29;20044;-79
2024/01/20 03:54:04;;;;;;;10.75;5.75;;;-2.70;99.90;;;;;;4921460;29;20091;-78
2024/01/20 03:56:30;;;;;;;11.05;5.88;;;-2.70;99.90;;;;;;4901829;29;20044;-78
2024/01/20 03:58:58;;;;;;;12.38;6.20;;;-2.80;99.90;;;;;;4922017;29;20040;-79
2024/01/20 04:01:23;;;;;;;11.63;6.03;;;-2.70;99.90;;;;;;4918831;29;20413;-78
2024/01/20 04:03:50;;;;;;;13.05;5.82;;;-2.80;99.90;;;;;;4907308;29;20059;-79
2024/01/20 04:06:16;;;;;;;11.82;6.18;;;-2.80;99.90;;;;;;4905580;29;20038;-78
2024/01/20 04:08:42;;;;;;;11.70;6.30;;;-2.80;99.90;;;;;;4908133;29;20118;-78
2024/01/20 04:11:08;;;;;;;12.82;6.78;;;-2.80;99.90;;;;;;4921602;29;20096;-79
2024/01/20 04:13:33;;;;;;;10.30;5.88;;;-2.90;99.90;;;;;;4922300;29;20033;-77
2024/01/20 04:15:59;;;;;;;12.48;6.13;;;-2.90;99.90;;;;;;4921346;29;20096;-79
2024/01/20 04:18:25;;;;;;;12.45;6.55;;;-2.90;99.90;;;;;;4904515;29;20034;-78
2024/01/20 04:20:51;;;;;;;13.52;6.10;;;-2.90;99.90;;;;;;4919501;29;20016;-78
2024/01/20 04:23:17;;;;;;;11.70;6.38;;;-2.90;99.90;;;;;;4918996;29;20032;-79
2024/01/20 04:25:43;;;;;;;10.93;6.10;;;-2.90;99.90;;;;;;4919779;29;20036;-79
2024/01/20 04:28:09;;;;;;;12.73;6.40;;;-2.90;99.90;;;;;;4918250;29;20037;-78
2024/01/20 04:30:34;;;;;;;12.85;6.85;;;-2.90;99.90;;;;;;4922096;29;20046;-78
2024/01/20 04:33:00;;;;;;;14.23;6.82;;;-2.90;99.90;;;;;;4922710;29;20108;-79
2024/01/20 04:35:26;;;;;;;11.80;6.55;;;-2.90;99.90;;;;;;4919398;29;20035;-79
2024/01/20 04:37:52;;;;;;;12.25;6.32;;;-2.90;99.90;;;;;;4919510;29;20040;-78
2024/01/20 04:40:17;;;;;;;10.35;5.78;;;-2.90;99.90;;;;;;4897219;29;20028;-78
2024/01/20 04:42:43;;;;;;;10.05;5.63;;;-3.00;99.90;;;;;;4901636;29;20500;-78
2024/01/20 04:45:12;;;;;;;10.95;6.15;;;-3.00;99.90;;;;;;4918136;29;20083;-79
2024/01/20 04:47:38;;;;;;;13.15;6.20;;;-3.00;99.90;;;;;;4918302;29;20121;-78
2024/01/20 04:50:05;;;;;;;13.75;6.13;;;-3.00;99.90;;;;;;4900642;29;20048;-79
2024/01/20 04:52:30;;;;;;;9.43;5.50;;;-3.00;99.90;;;;;;4915276;29;20731;-79
2024/01/20 04:54:56;;;;;;;10.68;5.85;;;-3.00;99.90;;;;;;4918833;29;20047;-78
2024/01/20 04:57:22;;;;;;;11.38;6.15;;;-3.00;99.90;;;;;;4903562;29;20039;-78
2024/01/20 04:59:48;;;;;;;13.20;6.25;;;-3.00;99.90;;;;;;4899371;29;20043;-79
2024/01/20 05:02:14;;;;;;;12.05;6.03;;;-3.00;99.90;;;;;;4917060;29;20035;-78
2024/01/20 05:04:40;;;;;;;9.57;5.50;;;-3.00;99.90;;;;;;4915496;29;20421;-79
2024/01/20 05:07:06;;;;;;;12.27;7.15;;;-3.00;99.90;;;;;;4917478;29;20032;-78
2024/01/20 05:09:31;;;;;;;11.63;5.97;;;-3.00;99.90;;;;;;4901844;29;20497;-78
2024/01/20 05:11:57;;;;;;;12.82;5.82;;;-3.10;99.90;;;;;;4924323;29;20515;-79
2024/01/20 05:14:23;;;;;;;11.68;5.78;;;-3.00;99.90;;;;;;4888592;29;20042;-79
2024/01/20 05:16:49;;;;;;;15.63;6.78;;;-3.00;99.90;;;;;;4905772;29;20103;-80
2024/01/20 05:19:15;;;;;;;11.55;6.15;;;-3.10;99.90;;;;;;4904991;29;20063;-79
2024/01/20 05:21:40;;;;;;;11.68;6.03;;;-3.00;99.90;;;;;;4905578;29;20366;-79
2024/01/20 05:24:06;;;;;;;12.50;6.38;;;-3.00;99.90;;;;;;4917765;29;20033;-79
2024/01/20 05:26:32;;;;;;;13.23;6.55;;;-3.00;99.90;;;;;;4922114;29;20032;-79
2024/01/20 05:28:58;;;;;;;13.00;6.40;;;-3.00;99.90;;;;;;4920917;29;20027;-79
2024/01/20 05:31:31;;;;;;;10.57;5.85;;;-3.00;99.90;;;;;;4923923;29;20035;-79
2024/01/20 05:33:57;;;;;;;14.77;6.15;;;-3.00;99.90;;;;;;4921611;29;20038;-79
2024/01/20 05:36:23;;;;;;;11.57;5.82;;;-3.10;99.90;;;;;;4910647;29;20036;-79
2024/01/20 05:38:49;;;;;;;11.73;6.22;;;-3.10;99.90;;;;;;4909699;29;20115;-79
2024/01/20 05:41:14;;;;;;;11.23;6.20;;;-3.20;99.90;;;;;;4925920;29;20032;-79
2024/01/20 05:43:40;;;;;;;11.85;5.80;;;-3.20;99.90;;;;;;4924195;29;20078;-79
2024/01/20 05:46:09;;;;;;;13.43;6.40;;;-3.20;99.90;;;;;;4925359;29;20052;-79
2024/01/20 05:48:35;;;;;;;15.68;5.85;;;-3.20;99.90;;;;;;4904602;29;20050;-78
2024/01/20 05:51:01;;;;;;;12.35;6.78;;;-3.10;99.90;;;;;;4905556;29;20416;-79
2024/01/20 05:53:27;;;;;;;9.68;5.95;;;-3.10;99.90;;;;;;4923648;29;20036;-79
2024/01/20 05:55:53;;;;;;;10.73;6.05;;;-3.10;99.90;;;;;;4918750;29;20393;-78
2024/01/20 05:58:19;;;;;;;13.30;6.03;;;-3.20;99.90;;;;;;4905250;29;20035;-77
2024/01/20 06:00:45;;;;;;;14.85;6.43;;;-3.20;99.90;;;;;;4917410;29;20028;-77
2024/01/20 06:03:10;;;;;;;12.48;5.90;;;-3.20;99.90;;;;;;4918037;29;20029;-79
2024/01/20 06:05:36;;;;;;;11.68;6.85;;;-3.20;99.90;;;;;;4903765;29;20799;-79
2024/01/20 06:08:02;;;;;;;10.52;5.75;;;-3.30;99.90;;;;;;4901656;29;20095;-80
2024/01/20 06:10:28;;;;;;;11.32;5.65;;;-3.30;99.90;;;;;;4905003;29;20031;-78
2024/01/20 06:12:54;;;;;;;12.13;6.40;;;-3.30;99.90;;;;;;4901638;29;20485;-78
2024/01/20 06:15:19;;;;;;;10.63;5.63;;;-3.40;99.90;;;;;;4916025;29;20119;-78
2024/01/20 06:17:45;;;;;;;13.00;6.68;;;-3.40;99.90;;;;;;4905300;29;20036;-78
2024/01/20 06:20:11;;;;;;;12.55;5.88;;;-3.60;99.90;;;;;;4918003;29;20035;-78
2024/01/20 06:22:39;;;;;;;12.00;6.70;;;-3.60;99.90;;;;;;4916699;29;20564;-78
2024/01/20 06:25:05;;;;;;;12.20;6.68;;;-3.70;99.90;;;;;;4917653;29;20035;-79
2024/01/20 06:27:31;;;;;;;12.68;6.10;;;-3.70;99.90;;;;;;4910154;29;20036;-78
2024/01/20 06:29:57;;;;;;;14.02;6.78;;;-3.70;99.90;;;;;;4920876;29;20036;-78
2024/01/20 06:32:22;;;;;;;11.18;6.20;;;-3.60;99.90;;;;;;4902801;29;20039;-77
2024/01/20 06:34:48;;;;;;;9.55;5.75;;;-3.60;99.90;;;;;;4913273;29;20174;-77
2024/01/20 06:37:14;;;;;;;12.43;5.50;;;-3.60;99.90;;;;;;4905366;29;20115;-77
2024/01/20 06:39:41;;;;;;;19.35;6.72;;;-3.60;99.90;;;;;;4901157;29;20119;-78
2024/01/20 06:42:10;;;;;;;11.25;5.88;;;-3.60;99.90;;;;;;4915817;29;20045;-78
2024/01/20 06:44:35;;;;;;;12.57;6.28;;;-3.60;99.90;;;;;;4920902;29;20032;-78
2024/01/20 06:47:02;;;;;;;12.85;6.03;;;-3.60;99.90;;;;;;4919034;29;20104;-78
2024/01/20 06:49:28;;;;;;;16.85;6.72;;;-3.60;99.90;;;;;;4917117;29;20101;-79
2024/01/20 06:51:53;;;;;;;11.63;6.70;;;-3.60;99.90;;;;;;4920932;29;20036;-78
2024/01/20 06:54:19;;;;;;;14.50;6.72;;;-3.60;99.90;;;;;;4916683;29;20035;-78
2024/01/20 06:56:45;;;;;;;13.73;6.95;;;-3.60;99.90;;;;;;4917055;29;20410;-79
2024/01/20 06:59:11;;;;;;;13.80;5.85;;;-3.60;99.90;;;;;;4924940;29;20044;-79
2024/01/20 07:01:37;;;;;;;10.75;6.50;;;-3.60;99.90;;;;;;4908955;29;20047;-78
2024/01/20 07:04:03;;;;;;;12.68;5.80;;;-3.60;99.90;;;;;;4902313;29;20112;-79
2024/01/20 07:06:30;;;;;;;12.68;6.47;;;-3.60;99.90;;;;;;4904036;29;20112;-78
2024/01/20 07:08:55;;;;;;;10.38;6.03;;;-3.60;99.90;;;;;;4905363;29;20047;-79
2024/01/20 07:11:23;;;;;;;14.98;6.90;;;-3.60;99.90;;;;;;4916411;29;20398;-79
2024/01/20 07:13:49;;;;;;;13.50;7.00;;;-3.60;99.90;;;;;;4886554;29;20036;-77
2024/01/20 07:16:15;;;;;;;11.13;6.18;;;-3.60;99.90;;;;;;4888937;29;20046;-78
2024/01/20 07:18:42;;;;;;;13.25;6.70;;;-3.60;99.90;;;;;;4903599;29;20032;-79
2024/01/20 07:21:11;;;;;;;13.95;6.78;;;-3.50;99.90;;;;;;4917512;29;20119;-78
2024/01/20 07:23:46;;;;;;;12.85;6.80;;;-3.50;99.90;;;;;;4917165;29;20517;-78
2024/01/20 07:26:12;;;;;;;17.42;7.05;;;-3.50;99.90;;;;;;4903671;29;20430;-79
2024/01/20 07:28:37;;;;;;;14.52;6.82;;;-3.50;99.90;;;;;;4922554;29;20087;-78
2024/01/20 07:31:03;;;;;;;14.15;7.35;;;-3.50;99.90;;;;;;4909185;29;20036;-79
2024/01/20 07:33:29;;;;;;;11.73;6.78;;;-3.50;99.90;;;;;;4892464;29;20067;-79
2024/01/20 07:35:55;;;;;;;16.17;7.72;;;-3.50;99.90;;;;;;4875974;29;20044;-79
2024/01/20 07:38:20;;;;;;;14.45;7.70;;;-3.50;99.90;;;;;;4900576;29;20036;-78
2024/01/20 07:40:46;;;;;;;11.95;6.70;;;-3.40;99.90;;;;;;4907710;29;20056;-78
2024/01/20 07:43:12;;;;;;;13.50;7.05;;;-3.30;99.90;;;;;;4919728;29;20028;-79
2024/01/20 07:45:40;;;;;;;14.38;7.28;;;-3.40;99.90;;;;;;4905330;29;20038;-78
2024/01/20 07:48:06;;;;;;;12.45;6.82;;;-3.40;99.90;;;;;;4902155;29;20044;-79
2024/01/20 07:50:32;;;;;;;13.80;7.10;;;-3.40;99.90;;;;;;4919261;29;20412;-78
2024/01/20 07:52:58;;;;;;;12.65;7.05;;;-3.40;99.90;;;;;;4900344;29;20036;-78
2024/01/20 07:55:23;;;;;;;14.00;7.53;;;-3.40;99.90;;;;;;4899379;29;20032;-79
2024/01/20 07:57:49;;;;;;;12.63;6.68;;;-3.40;99.90;;;;;;4916111;29;20523;-78
2024/01/20 08:00:19;;;;;;;13.63;7.55;;;-3.30;99.90;;;;;;4901541;29;20096;-80
2024/01/20 08:02:45;;;;;;;11.40;7.22;;;-3.30;99.90;;;;;;4892999;29;20033;-77
2024/01/20 08:05:11;;;;;;;13.88;6.82;;;-3.30;99.90;;;;;;4915255;29;20102;-78
2024/01/20 08:07:37;;;;;;;13.00;7.20;;;-3.30;99.90;;;;;;4914361;29;20060;-80
2024/01/20 08:10:03;;;;;;;15.15;7.18;;;-3.40;99.90;;;;;;4913876;29;20039;-78
2024/01/20 08:12:29;;;;;;;12.30;7.25;;;-3.40;99.90;;;;;;4917663;29;20046;-78
2024/01/20 08:14:56;;;;;;;14.68;7.45;;;-3.40;99.90;;;;;;4902371;29;20127;-77
2024/01/20 08:17:22;;;;;;;12.63;7.80;;;-3.40;99.90;;;;;;4898144;29;20077;-78
2024/01/20 08:19:49;;;;;;;15.70;7.97;;;-3.30;99.90;;;;;;4899045;29;20115;-78
2024/01/20 08:22:14;;;;;;;14.38;8.00;;;-3.40;99.90;;;;;;4903589;29;20036;-78
2024/01/20 08:24:40;;;;;;;15.45;7.40;;;-3.30;99.90;;;;;;4915809;29;20408;-77
2024/01/20 08:27:06;;;;;;;13.55;6.45;;;-3.30;99.90;;;;;;4905548;29;20390;-80
2024/01/20 08:29:32;;;;;;;13.35;7.68;;;-3.20;99.90;;;;;;4886689;29;20044;-78
2024/01/20 08:31:58;;;;;;;13.35;7.13;;;-3.20;99.90;;;;;;4906478;29;20036;-79
2024/01/20 08:34:23;;;;;;;12.98;7.03;;;-3.10;99.90;;;;;;4918128;29;20032;-79
2024/01/20 08:36:49;;;;;;;12.50;7.60;;;-3.00;99.90;;;;;;4922557;29;20508;-79
2024/01/20 08:39:16;;;;;;;16.20;7.45;;;-3.00;99.90;;;;;;4915703;29;20574;-79
2024/01/20 08:41:42;;;;;;;12.10;7.30;;;-2.90;99.90;;;;;;4903841;29;20035;-78
2024/01/20 08:44:07;;;;;;;12.40;7.18;;;-2.90;99.90;;;;;;4914467;29;20025;-80
2024/01/20 08:46:33;;;;;;;10.70;6.90;;;-2.80;99.90;;;;;;4917296;29;20033;-80
2024/01/20 08:48:59;;;;;;;14.85;7.68;;;-2.80;99.90;;;;;;4898074;29;20452;-80
2024/01/20 08:51:25;;;;;;;12.90;7.40;;;-2.70;99.90;;;;;;4905669;29;20052;-80
2024/01/20 08:53:50;;;;;;;11.98;7.07;;;-2.70;99.90;;;;;;4909974;29;20039;-78
2024/01/20 08:56:16;;;;;;;12.43;6.82;;;-2.70;99.90;;;;;;4918334;29;20055;-79
2024/01/20 08:58:42;;;;;;;10.82;7.10;;;-2.60;99.90;;;;;;4903910;29;20036;-80
2024/01/20 09:01:08;;;;;;;13.32;7.22;;;-2.50;99.90;;;;;;4923552;29;20088;-81
2024/01/20 09:03:34;;;;;;;15.45;7.60;;;-2.40;99.90;;;;;;4922006;29;20073;-80
2024/01/20 09:05:59;;;;;;;13.82;7.68;;;-2.40;99.90;;;;;;4920493;29;20034;-81
2024/01/20 09:08:25;;;;;;;12.73;7.50;;;-2.40;99.90;;;;;;4926003;29;20552;-81
2024/01/20 09:10:51;;;;;;;11.55;7.53;;;-2.50;99.90;;;;;;4905332;29;20413;-80
2024/01/20 09:13:17;;;;;;;15.30;7.75;;;-2.40;99.90;;;;;;4919335;29;20032;-78
2024/01/20 09:15:46;;;;;;;13.63;7.65;;;-2.50;99.90;;;;;;4921529;29;20480;-80
2024/01/20 09:18:16;;;;;;;15.88;7.70;;;-2.50;99.90;;;;;;4917428;29;20312;-80
2024/01/20 09:20:42;;;;;;;14.57;7.90;;;-2.50;99.90;;;;;;4900412;29;20031;-80
2024/01/20 09:23:08;;;;;;;14.05;7.95;;;-2.40;99.90;;;;;;4917735;29;20035;-80
2024/01/20 09:25:33;;;;;;;14.35;7.90;;;-2.40;99.90;;;;;;4898807;29;20035;-79
2024/01/20 09:28:00;;;;;;;11.98;7.70;;;-2.30;99.90;;;;;;4912517;29;20036;-79
2024/01/20 09:30:26;;;;;;;15.63;8.45;;;-2.30;99.90;;;;;;4896607;29;20072;-79
2024/01/20 09:32:52;;;;;;;17.55;8.25;;;-2.30;99.90;;;;;;4897619;29;20032;-79
2024/01/20 09:35:17;;;;;;;13.50;7.85;;;-2.30;99.90;;;;;;4913588;29;20091;-78
2024/01/20 09:37:43;;;;;;;14.82;8.63;;;-2.20;99.90;;;;;;4895363;29;20040;-78
2024/01/20 09:40:10;;;;;;;15.93;8.80;;;-2.20;99.90;;;;;;4915457;29;20044;-79
2024/01/20 09:42:36;;;;;;;15.30;8.73;;;-2.30;99.90;;;;;;4901579;29;20063;-79
2024/01/20 09:45:02;;;;;;;18.83;9.13;;;-2.20;99.90;;;;;;4912486;29;20449;-78
2024/01/20 09:47:28;;;;;;;16.73;9.00;;;-2.10;99.90;;;;;;4902856;29;20127;-78
2024/01/20 09:49:54;;;;;;;16.25;9.18;;;-2.00;99.90;;;;;;4911722;29;20032;-78
2024/01/20 09:52:27;;;;;;;18.90;9.50;;;-1.90;99.90;;;;;;4913330;29;20038;-79
2024/01/20 09:55:21;;;;;;;17.17;9.35;;;-1.60;99.90;;;;;;4897067;29;20036;-79
2024/01/20 09:57:48;;;;;;;15.68;9.00;;;-1.50;99.90;;;;;;4905508;29;20099;-79
2024/01/20 10:00:18;;;;;;;18.90;8.05;;;-1.20;99.90;;;;;;4918026;29;20032;-79
2024/01/20 10:02:45;;;;;;;14.88;8.93;;;-1.10;99.90;;;;;;4916570;29;20478;-78
2024/01/20 10:05:13;;;;;;;17.13;8.73;;;-1.10;99.90;;;;;;4916308;29;20032;-78
2024/01/20 10:07:39;;;;;;;14.02;9.07;;;-1.10;99.90;;;;;;4899570;29;20032;-79
2024/01/20 10:10:18;;;;;;;15.10;8.63;;;-1.10;99.90;;;;;;4911214;29;20613;-79
2024/01/20 10:12:46;;;;;;;17.92;9.15;;;-1.00;99.90;;;;;;4922327;29;20039;-78
2024/01/20 10:15:12;;;;;;;16.25;9.15;;;-0.90;99.90;;;;;;4923525;29;20051;-79
2024/01/20 10:17:38;;;;;;;15.23;8.90;;;-0.80;99.90;;;;;;4918553;29;20043;-79
2024/01/20 10:20:05;;;;;;;17.05;9.65;;;-0.70;99.90;;;;;;4899361;29;20040;-79
2024/01/20 10:22:31;;;;;;;17.17;9.50;;;-0.60;99.90;;;;;;4924031;29;20038;-79
2024/01/20 10:24:56;;;;;;;19.35;9.18;;;-0.50;99.90;;;;;;4920124;29;20099;-79
2024/01/20 10:27:23;;;;;;;17.27;10.10;;;-0.50;99.90;;;;;;4920991;29;20442;-78
2024/01/20 10:29:49;;;;;;;15.63;9.10;;;-0.40;99.90;;;;;;4915193;29;20046;-79
2024/01/20 10:32:16;;;;;;;17.67;9.70;;;-0.40;99.90;;;;;;4920309;29;20489;-79
2024/01/20 10:34:43;;;;;;;16.05;9.57;;;-0.70;99.90;;;;;;4919459;29;20044;-80
2024/01/20 10:37:11;;;;;;;21.50;9.98;;;-0.70;99.90;;;;;;4924160;29;20517;-78
2024/01/20 10:39:42;;;;;;;17.42;9.38;;;-0.80;99.90;;;;;;4920656;29;20446;-79
2024/01/20 10:42:12;;;;;;;15.57;10.25;;;-0.80;99.90;;;;;;4902791;29;20416;-78
2024/01/20 10:45:08;;;;;;;19.20;9.90;;;-1.00;99.90;;;;;;4920028;29;20036;-79
2024/01/20 10:47:35;;;;;;;18.02;9.73;;;-0.90;99.90;;;;;;4929529;29;20456;-79
2024/01/20 10:50:04;;;;;;;15.88;9.65;;;-0.70;99.90;;;;;;4916112;29;20036;-78
2024/01/20 10:52:34;;;;;;;19.65;10.90;;;-0.50;99.90;;;;;;4920223;29;20071;-78
2024/01/20 10:55:04;;;;;;;19.00;9.70;;;-0.40;99.90;;;;;;4917911;29;20040;-78
2024/01/20 10:57:30;;;;;;;14.98;9.27;;;-0.30;99.90;;;;;;4919269;29;20040;-79
2024/01/20 10:59:58;;;;;;;16.02;10.10;;;-0.30;99.90;;;;;;4919761;29;20031;-78
2024/01/20 11:02:25;;;;;;;17.85;9.85;;;-0.30;99.90;;;;;;4917121;29;20040;-78
2024/01/20 11:04:51;;;;;;;17.67;9.40;;;-0.20;99.90;;;;;;4921847;29;20032;-80
2024/01/20 11:07:24;;;;;;;17.67;9.75;;;-0.10;99.90;;;;;;4920620;29;20107;-79
2024/01/20 11:09:57;;;;;;;15.80;8.98;;;-0.10;99.90;;;;;;4920385;29;20436;-80
2024/01/20 11:12:24;;;;;;;17.55;9.25;;;-0.10;99.90;;;;;;4920015;29;20405;-80
2024/01/20 11:14:51;;;;;;;15.52;9.18;;;-0.10;99.90;;;;;;4918205;29;20519;-79
2024/01/20 11:17:18;;;;;;;18.58;10.45;;;0.00;99.90;;;;;;4919720;29;20060;-80
2024/01/20 11:19:44;;;;;;;15.32;10.02;;;0.00;99.90;;;;;;4905658;29;20048;-79
2024/01/20 11:22:49;;;;;;;20.83;9.95;;;0.00;99.90;;;;;;4916456;29;20108;-79
2024/01/20 11:25:17;;;;;;;17.30;9.85;;;-0.20;99.90;;;;;;4918306;29;20062;-79
2024/01/20 11:27:58;;;;;;;18.33;9.50;;;-0.30;99.90;;;;;;4923891;29;20043;-79
2024/01/20 11:30:31;;;;;;;18.67;10.68;;;-0.20;99.90;;;;;;4918189;29;20039;-79
2024/01/20 11:32:57;;;;;;;16.25;10.00;;;-0.10;99.90;;;;;;4915671;29;20060;-78
2024/01/20 11:35:24;;;;;;;18.23;10.27;;;-0.10;99.90;;;;;;4922084;29;20118;-79
2024/01/20 11:37:51;;;;;;;19.63;10.45;;;-0.10;99.90;;;;;;4919231;29;20032;-79
2024/01/20 11:40:17;;;;;;;18.55;9.90;;;-0.10;99.90;;;;;;4925062;29;20046;-79
2024/01/20 11:42:42;;;;;;;15.13;9.80;;;-0.30;99.90;;;;;;4909314;29;20032;-80
2024/01/20 11:45:09;;;;;;;16.98;10.30;;;-0.40;99.90;;;;;;4919787;29;20028;-79
2024/01/20 11:47:35;;;;;;;19.17;10.95;;;-0.80;99.90;;;;;;4915929;29;20056;-79
2024/01/20 11:50:01;;;;;;;18.55;10.40;;;-1.00;99.90;;;;;;4918179;29;20036;-79
2024/01/20 11:52:28;;;;;;;21.30;10.48;;;-1.40;99.90;;;;;;4913484;29;20044;-79
2024/01/20 11:54:54;;;;;;;17.17;10.40;;;-1.50;99.90;;;;;;4912598;29;20032;-78
2024/01/20 11:57:21;;;;;;;19.75;10.88;;;-1.50;99.90;;;;;;4914510;29;20107;-79
2024/01/20 11:59:47;;;;;;;15.77;10.32;;;-1.50;99.90;;;;;;4895263;29;20035;-79
2024/01/20 12:02:14;;;;;;;16.45;10.05;;;-1.40;99.90;;;;;;4909819;29;20370;-79
2024/01/20 12:04:40;;;;;;;18.75;10.77;;;-1.50;99.90;;;;;;4921774;29;20044;-79
2024/01/20 12:07:06;;;;;;;18.33;10.68;;;-1.50;99.90;;;;;;4883998;29;20464;-79
2024/01/20 12:09:32;;;;;;;18.40;10.25;;;-1.50;99.90;;;;;;4914975;29;20040;-79
2024/01/20 12:11:57;;;;;;;19.40;10.95;;;-1.60;99.90;;;;;;4870985;29;20721;-80
2024/01/20 12:14:24;;;;;;;20.55;11.65;;;-1.70;99.90;;;;;;4916691;29;20389;-80
2024/01/20 12:16:50;;;;;;;17.42;10.25;;;-1.80;99.90;;;;;;4916838;29;20036;-79
2024/01/20 12:19:16;;;;;;;21.70;10.82;;;-1.80;99.90;;;;;;4902955;29;20047;-79
2024/01/20 12:21:42;;;;;;;22.63;11.95;;;-1.80;99.90;;;;;;4915946;29;20031;-79
2024/01/20 12:24:12;;;;;;;22.00;11.07;;;-1.90;99.90;;;;;;4898235;29;20039;-79
2024/01/20 12:26:43;;;;;;;21.52;10.32;;;-1.90;99.90;;;;;;4921588;29;20107;-79
2024/01/20 12:29:08;;;;;;;18.98;11.40;;;-1.80;99.90;;;;;;4913877;29;20122;-78
2024/01/20 12:31:34;;;;;;;22.33;10.85;;;-1.70;99.90;;;;;;4913552;29;20096;-78
2024/01/20 12:34:01;;;;;;;22.70;11.40;;;-1.60;99.90;;;;;;4912809;29;20588;-78